MSC Mara — V7NF9 — position and weather

sailwx.info

Track history (hours):
 
Tides and Currents Weather Stations Pressure Air Temp Water Temp Dewpoint Dewpoint Depression Visibility Wind Speed Wind Dir Waves Ship Positions

MSC Mara

Last reported at 2017-Feb-17 04:23 UTC. Time now 2017-Feb-23 16:25 UTC.
Position N 22°32' E 119°55'.

Length 294 m; draft 10.8 m.

Type: Ship (hazmat cat C). MMSI: 538002955.

Date/timePositionNaut miles runAvg speedWind from/ knotsBaromVisibWave heightAir tempDewpointWater temp
2017-Feb-17 04:23N 22°32' E 119°55'1011.8
2017-Feb-17 03:33N 22°33' E 120°06'1211.6
2017-Feb-17 02:33N 22°33' E 120°18'1 1.1
2017-Feb-17 01:32N 22°34' E 120°19'0 0.0
2017-Feb-17 00:31N 22°34' E 120°19'0 0.0
2017-Feb-16 23:31N 22°34' E 120°19'0 0.0
2017-Feb-16 22:31N 22°34' E 120°19'0 0.0
2017-Feb-16 21:31N 22°34' E 120°19'0 0.0
2017-Feb-16 20:31N 22°34' E 120°19'0 0.0
2017-Feb-16 19:22N 22°34' E 120°19'0 0.0
2017-Feb-16 18:31N 22°34' E 120°19'3 2.6
2017-Feb-16 17:33N 22°33' E 120°17'4 4.1
2017-Feb-16 16:33N 22°30' E 120°13'7 7.0
2017-Feb-16 15:33N 22°23' E 120°13'4 3.8
2017-Feb-16 14:32N 22°19' E 120°12'1 1.2
2017-Feb-16 13:32N 22°18' E 120°13'2 1.9
2017-Feb-16 12:29N 22°17' E 120°14'2 1.9
2017-Feb-16 11:29N 22°15' E 120°15'2 2.0
2017-Feb-16 10:32N 22°13' E 120°16'2 1.8
2017-Feb-16 09:23N 22°11' E 120°16'  
Track history (hours):
 
Tides and Currents Weather Stations Pressure Air Temp Water Temp Dewpoint Dewpoint Depression Visibility Wind Speed Wind Dir Waves Ship Positions

MSC Mara

Last reported at 2017-Feb-17 04:23 UTC. Time now 2017-Feb-23 16:25 UTC.
Position N 22°32' E 119°55'.

Length 294 m; draft 10.8 m.

Type: Ship (hazmat cat C). MMSI: 538002955.

Date/timePositionNaut miles runAvg speedWind from/ knotsBaromVisibWave heightAir tempDewpointWater temp
2017-Feb-17 04:23N 22°32' E 119°55'1011.8
2017-Feb-17 03:33N 22°33' E 120°06'1211.6
2017-Feb-17 02:33N 22°33' E 120°18'1 1.1
2017-Feb-17 01:32N 22°34' E 120°19'0 0.0
2017-Feb-17 00:31N 22°34' E 120°19'0 0.0
2017-Feb-16 23:31N 22°34' E 120°19'0 0.0
2017-Feb-16 22:31N 22°34' E 120°19'0 0.0
2017-Feb-16 21:31N 22°34' E 120°19'0 0.0
2017-Feb-16 20:31N 22°34' E 120°19'0 0.0
2017-Feb-16 19:22N 22°34' E 120°19'0 0.0
2017-Feb-16 18:31N 22°34' E 120°19'3 2.6
2017-Feb-16 17:33N 22°33' E 120°17'4 4.1
2017-Feb-16 16:33N 22°30' E 120°13'7 7.0
2017-Feb-16 15:33N 22°23' E 120°13'4 3.8
2017-Feb-16 14:32N 22°19' E 120°12'1 1.2
2017-Feb-16 13:32N 22°18' E 120°13'2 1.9
2017-Feb-16 12:29N 22°17' E 120°14'2 1.9
2017-Feb-16 11:29N 22°15' E 120°15'2 2.0
2017-Feb-16 10:32N 22°13' E 120°16'2 1.8
2017-Feb-16 09:23N 22°11' E 120°16'  

Dump ship's entire track history